createdAt,value
2018-11-02T00:00:46.868Z,10.72
2018-11-02T00:01:52.083Z,12.03
2018-11-02T00:02:56.764Z,9.80
2018-11-02T00:04:01.411Z,9.40
2018-11-02T00:05:07.251Z,7.83
2018-11-02T00:06:14.163Z,8.45
2018-11-02T00:07:18.611Z,9.60
2018-11-02T00:08:23.807Z,8.43
2018-11-02T00:09:28.719Z,7.90
2018-11-02T00:10:33.291Z,8.65
2018-11-02T00:11:37.473Z,7.55
2018-11-02T00:12:41.719Z,6.58
2018-11-02T00:13:45.944Z,7.35
2018-11-02T00:14:50.375Z,8.95
2018-11-02T00:15:55.328Z,7.47
2018-11-02T00:16:59.826Z,7.47
2018-11-02T00:18:04.537Z,7.70
2018-11-02T00:19:08.833Z,7.50
2018-11-02T00:20:13.139Z,7.92
2018-11-02T00:21:17.550Z,8.40
2018-11-02T00:22:21.780Z,8.00
2018-11-02T00:23:26.080Z,7.12
2018-11-02T00:24:30.643Z,8.30
2018-11-02T00:25:34.953Z,7.55
2018-11-02T00:26:39.155Z,7.45
2018-11-02T00:27:43.476Z,7.75
2018-11-02T00:28:47.870Z,7.37
2018-11-02T00:29:52.080Z,6.10
2018-11-02T00:30:56.315Z,7.45
2018-11-02T00:32:01.505Z,11.35
2018-11-02T00:33:05.825Z,7.78
2018-11-02T00:34:10.065Z,8.88
2018-11-02T00:35:14.343Z,7.90
2018-11-02T00:36:18.597Z,7.55
2018-11-02T00:37:22.860Z,6.15
2018-11-02T00:38:27.185Z,6.28
2018-11-02T00:39:31.538Z,6.17
2018-11-02T00:40:37.765Z,7.40
2018-11-02T00:41:41.967Z,6.45
2018-11-02T00:42:46.263Z,6.83
2018-11-02T00:43:50.723Z,6.10
2018-11-02T00:44:55.386Z,7.10
2018-11-02T00:46:00.064Z,6.50
2018-11-02T00:47:06.430Z,5.50
2018-11-02T00:48:10.724Z,5.22
2018-11-02T00:49:15.304Z,6.15
2018-11-02T00:50:19.619Z,5.80
2018-11-02T00:51:24.021Z,4.60
2018-11-02T00:52:28.537Z,4.37
2018-11-02T00:53:32.921Z,4.65
2018-11-02T00:54:37.441Z,5.12
2018-11-02T00:55:42.727Z,4.60
2018-11-02T00:56:47.083Z,5.50
2018-11-02T00:57:51.342Z,4.60
2018-11-02T00:58:55.756Z,4.35
2018-11-02T01:00:00.111Z,4.03
2018-11-02T01:01:04.495Z,5.10
2018-11-02T01:02:09.261Z,4.95
2018-11-02T01:03:13.442Z,5.03
2018-11-02T01:04:17.946Z,4.60
2018-11-02T01:05:22.129Z,5.28
2018-11-02T01:06:26.404Z,4.65
2018-11-02T01:07:31.131Z,4.08
2018-11-02T01:08:35.492Z,4.28
2018-11-02T01:09:39.884Z,5.03
2018-11-02T01:10:44.189Z,3.77
2018-11-02T01:11:48.461Z,3.70
2018-11-02T01:12:52.694Z,3.60
2018-11-02T01:13:57.169Z,3.80
2018-11-02T01:15:01.422Z,4.30
2018-11-02T01:16:05.806Z,4.10
2018-11-02T01:17:10.301Z,4.72
2018-11-02T01:18:14.993Z,4.55
2018-11-02T01:19:20.290Z,4.75
2018-11-02T01:20:24.707Z,4.55
2018-11-02T01:21:29.015Z,4.60
2018-11-02T01:22:33.658Z,4.45
2018-11-02T01:23:38.146Z,5.53
2018-11-02T01:24:42.643Z,4.53
2018-11-02T01:25:46.867Z,4.90
2018-11-02T01:26:51.103Z,4.83
2018-11-02T01:27:55.995Z,6.30
2018-11-02T01:29:00.200Z,5.50
2018-11-02T01:30:05.090Z,6.28
2018-11-02T01:31:09.533Z,5.60
2018-11-02T01:32:14.746Z,5.65
2018-11-02T01:33:23.662Z,5.05
2018-11-02T01:34:28.475Z,7.70
2018-11-02T01:35:34.969Z,5.35
2018-11-02T01:36:39.238Z,5.05
2018-11-02T01:37:43.430Z,13.00
2018-11-02T01:38:47.652Z,6.00
2018-11-02T01:39:51.951Z,9.68
2018-11-02T01:40:56.450Z,4.03
2018-11-02T01:42:00.672Z,8.75
2018-11-02T01:43:05.275Z,6.15
2018-11-02T01:44:09.567Z,4.25
2018-11-02T01:45:13.830Z,4.30
2018-11-02T01:46:18.138Z,4.87
2018-11-02T01:47:22.409Z,5.30
2018-11-02T01:48:26.617Z,4.65
2018-11-02T01:49:31.208Z,4.42
2018-11-02T01:50:35.455Z,5.17
2018-11-02T01:51:39.899Z,4.25
2018-11-02T01:52:44.461Z,4.53
2018-11-02T01:53:48.711Z,4.78
2018-11-02T01:54:52.982Z,4.90
2018-11-02T01:55:57.173Z,4.95
2018-11-02T01:57:01.364Z,5.10
2018-11-02T01:58:05.639Z,6.40
2018-11-02T01:59:09.792Z,7.97
2018-11-02T02:00:13.942Z,7.08
2018-11-02T02:01:18.139Z,6.92
2018-11-02T02:02:22.379Z,6.95
2018-11-02T02:03:26.549Z,7.60
2018-11-02T02:04:31.153Z,7.47
2018-11-02T02:05:35.475Z,6.97
2018-11-02T02:06:39.737Z,7.40
2018-11-02T02:07:43.894Z,7.10
2018-11-02T02:08:48.144Z,7.45
2018-11-02T02:09:52.355Z,7.03
2018-11-02T02:10:57.240Z,6.53
2018-11-02T02:12:01.896Z,7.70
2018-11-02T02:13:06.555Z,5.80
2018-11-02T02:14:10.760Z,6.65
2018-11-02T02:15:15.026Z,6.10
2018-11-02T02:16:19.226Z,4.80
2018-11-02T02:17:23.587Z,4.15
2018-11-02T02:18:30.330Z,3.75
2018-11-02T02:19:34.561Z,4.62
2018-11-02T02:20:38.787Z,4.40
2018-11-02T02:21:43.901Z,3.70
2018-11-02T02:22:48.350Z,4.35
2018-11-02T02:23:52.641Z,3.98
2018-11-02T02:25:06.854Z,3.60
2018-11-02T02:26:11.052Z,3.80
2018-11-02T02:27:15.320Z,4.33
2018-11-02T02:28:19.658Z,4.25
2018-11-02T02:29:23.858Z,4.10
2018-11-02T02:30:28.045Z,3.15
2018-11-02T02:31:32.660Z,3.20
2018-11-02T02:32:36.935Z,3.62
2018-11-02T02:33:41.174Z,4.00
2018-11-02T02:34:47.794Z,4.17
2018-11-02T02:35:52.049Z,4.00
2018-11-02T02:36:56.341Z,4.05
2018-11-02T02:38:00.526Z,3.75
2018-11-02T02:39:06.266Z,4.17
2018-11-02T02:40:12.036Z,4.05
2018-11-02T02:41:16.345Z,3.92
2018-11-02T02:42:20.755Z,3.45
2018-11-02T02:43:25.054Z,3.70
2018-11-02T02:44:29.545Z,2.90
2018-11-02T02:45:33.985Z,2.85
2018-11-02T02:46:39.303Z,2.87
2018-11-02T02:47:43.507Z,2.80
2018-11-02T02:48:48.244Z,2.65
2018-11-02T02:49:52.669Z,2.60
2018-11-02T02:50:57.011Z,2.72
2018-11-02T02:52:01.392Z,3.10
2018-11-02T02:53:05.813Z,2.70
2018-11-02T02:54:10.144Z,2.45
2018-11-02T02:55:14.607Z,2.92
2018-11-02T02:56:18.843Z,2.52
2018-11-02T02:57:23.010Z,3.05
2018-11-02T02:58:27.178Z,3.35
2018-11-02T02:59:31.358Z,3.45
2018-11-02T03:00:35.685Z,2.98
2018-11-02T03:01:40.268Z,3.42
2018-11-02T03:02:44.716Z,3.55
2018-11-02T03:03:49.013Z,3.25
2018-11-02T03:04:53.410Z,2.87
2018-11-02T03:05:57.742Z,3.10
2018-11-02T03:07:02.382Z,2.15
2018-11-02T03:08:06.648Z,2.10
2018-11-02T03:09:10.936Z,2.80
2018-11-02T03:10:15.560Z,3.12
2018-11-02T03:11:20.001Z,2.22
2018-11-02T03:12:24.422Z,2.62
2018-11-02T03:13:28.641Z,3.25
2018-11-02T03:14:32.882Z,3.08
2018-11-02T03:15:37.437Z,2.22
2018-11-02T03:16:41.652Z,2.80
2018-11-02T03:17:46.685Z,2.35
2018-11-02T03:18:50.998Z,2.30
2018-11-02T03:19:55.184Z,3.10
2018-11-02T03:21:38.737Z,1.65
2018-11-02T03:22:43.399Z,3.27
2018-11-02T03:23:47.944Z,3.00
2018-11-02T03:24:52.684Z,3.37
2018-11-02T03:25:57.241Z,2.40
2018-11-02T03:27:02.464Z,2.30
2018-11-02T03:28:07.060Z,2.90
2018-11-02T03:29:11.863Z,3.05
2018-11-02T03:30:16.963Z,2.67
2018-11-02T03:31:21.547Z,2.55
2018-11-02T03:32:26.362Z,4.20
2018-11-02T03:33:30.959Z,3.40
2018-11-02T03:34:35.620Z,6.95
2018-11-02T03:35:40.313Z,3.95
2018-11-02T03:36:44.990Z,5.35
2018-11-02T03:37:49.616Z,6.03
2018-11-02T03:38:54.205Z,2.70
2018-11-02T03:39:58.824Z,3.02
2018-11-02T03:41:03.865Z,2.95
2018-11-02T03:43:11.462Z,3.33
2018-11-02T03:44:15.995Z,3.40
2018-11-02T03:45:20.573Z,3.20
2018-11-02T03:46:25.656Z,2.77
2018-11-02T03:47:30.201Z,3.35
2018-11-02T03:48:34.944Z,2.85
2018-11-02T03:49:40.023Z,3.25
2018-11-02T03:50:44.644Z,2.95
2018-11-02T03:51:51.395Z,3.05
2018-11-02T03:52:57.771Z,3.47
2018-11-02T03:54:02.425Z,3.10
2018-11-02T03:55:07.222Z,2.83
2018-11-02T03:56:11.757Z,2.90
2018-11-02T03:57:16.275Z,3.00
2018-11-02T03:58:20.815Z,3.58
2018-11-02T03:59:25.899Z,2.80
2018-11-02T04:00:30.491Z,3.62
2018-11-02T04:01:35.056Z,3.52
2018-11-02T04:02:40.328Z,3.70
2018-11-02T04:03:45.438Z,3.25
2018-11-02T04:04:50.430Z,3.60
2018-11-02T04:05:54.982Z,3.72
2018-11-02T04:06:59.676Z,3.87
2018-11-02T04:08:04.240Z,3.70
2018-11-02T04:09:09.216Z,3.47
2018-11-02T04:10:13.898Z,4.00
2018-11-02T04:11:18.830Z,4.78
2018-11-02T04:12:23.327Z,4.25
2018-11-02T04:13:27.998Z,4.25
2018-11-02T04:14:32.533Z,4.58
2018-11-02T04:15:37.041Z,4.22
2018-11-02T04:16:41.597Z,4.60
2018-11-02T04:17:46.147Z,4.45
2018-11-02T04:18:50.664Z,5.65
2018-11-02T04:19:55.241Z,4.50
2018-11-02T04:20:59.819Z,4.47
2018-11-02T04:22:04.385Z,5.28
2018-11-02T04:23:09.472Z,4.80
2018-11-02T04:24:14.424Z,5.35
2018-11-02T04:25:19.000Z,5.67
2018-11-02T04:26:23.691Z,5.83
2018-11-02T04:27:28.478Z,5.83
2018-11-02T04:28:33.075Z,7.08
2018-11-02T04:29:37.637Z,6.62
2018-11-02T04:30:42.283Z,5.97
2018-11-02T04:31:46.913Z,5.75
2018-11-02T04:32:51.451Z,5.80
2018-11-02T04:33:56.239Z,6.83
2018-11-02T04:35:00.780Z,5.42
2018-11-02T04:36:05.406Z,5.55
2018-11-02T04:37:10.053Z,6.05
2018-11-02T04:38:14.646Z,6.00
2018-11-02T04:39:19.210Z,5.95
2018-11-02T04:40:24.082Z,5.90
2018-11-02T04:41:28.702Z,6.03
2018-11-02T04:42:33.591Z,5.00
2018-11-02T04:43:38.229Z,6.35
2018-11-02T04:44:43.068Z,5.87
2018-11-02T04:45:47.850Z,6.80
2018-11-02T04:46:53.066Z,6.12
2018-11-02T04:47:58.173Z,6.20
2018-11-02T04:49:03.387Z,8.08
2018-11-02T04:50:09.566Z,5.67
2018-11-02T04:51:16.205Z,6.87
2018-11-02T04:52:20.845Z,6.05
2018-11-02T04:53:30.495Z,7.65
2018-11-02T04:54:36.151Z,6.55
2018-11-02T04:55:40.883Z,6.70
2018-11-02T04:56:49.438Z,7.70
2018-11-02T04:57:54.452Z,10.32
2018-11-02T04:58:59.466Z,7.15
2018-11-02T05:00:04.607Z,9.00
2018-11-02T05:01:10.320Z,5.35
2018-11-02T05:02:15.079Z,7.75
2018-11-02T05:03:19.686Z,7.58
2018-11-02T05:04:24.386Z,4.45
2018-11-02T05:05:29.297Z,5.30
2018-11-02T05:06:33.887Z,4.72
2018-11-02T05:07:39.818Z,4.67
2018-11-02T05:08:46.026Z,6.05
2018-11-02T05:09:52.907Z,6.78
2018-11-02T05:10:57.727Z,4.20
2018-11-02T05:12:02.527Z,6.97
2018-11-02T05:13:07.310Z,4.05
2018-11-02T05:14:12.216Z,4.87
2018-11-02T05:15:16.890Z,3.90
2018-11-02T05:16:22.463Z,3.70
2018-11-02T05:17:27.042Z,4.87
2018-11-02T05:18:31.637Z,4.53
2018-11-02T05:19:37.397Z,3.98
2018-11-02T05:20:42.069Z,5.10
2018-11-02T05:21:46.874Z,4.15
2018-11-02T05:22:51.527Z,4.40
2018-11-02T05:23:56.048Z,4.60
2018-11-02T05:25:00.751Z,4.05
2018-11-02T05:26:05.664Z,4.65
2018-11-02T05:27:10.801Z,4.30
2018-11-02T05:28:17.221Z,5.12
2018-11-02T05:29:21.910Z,4.17
2018-11-02T05:30:26.434Z,4.70
2018-11-02T05:31:31.863Z,4.85
2018-11-02T05:32:36.415Z,4.50
2018-11-02T05:33:41.081Z,4.35
2018-11-02T05:34:45.667Z,4.20
2018-11-02T05:35:51.343Z,4.83
2018-11-02T05:36:56.045Z,4.78
2018-11-02T05:38:00.781Z,4.83
2018-11-02T05:39:08.255Z,4.67
2018-11-02T05:40:14.231Z,4.47
2018-11-02T05:41:18.897Z,5.70
2018-11-02T05:42:23.471Z,5.60
2018-11-02T05:43:28.221Z,5.25
2018-11-02T05:44:33.359Z,4.75
2018-11-02T05:45:51.746Z,5.65
2018-11-02T05:46:57.217Z,5.35
2018-11-02T05:48:02.769Z,5.70
2018-11-02T05:49:07.845Z,5.03
2018-11-02T05:50:12.820Z,5.78
2018-11-02T05:51:17.426Z,5.75
2018-11-02T05:52:22.051Z,5.85
2018-11-02T05:53:26.623Z,4.58
2018-11-02T05:54:31.160Z,5.45
2018-11-02T05:55:35.839Z,5.30
2018-11-02T05:56:41.884Z,5.50
2018-11-02T05:57:46.514Z,5.47
2018-11-02T05:58:51.118Z,6.45
2018-11-02T05:59:55.738Z,7.70
2018-11-02T06:01:01.619Z,6.70
2018-11-02T06:02:08.417Z,6.15
2018-11-02T06:03:14.338Z,6.30
2018-11-02T06:04:18.939Z,7.22
2018-11-02T06:05:23.570Z,6.87
2018-11-02T06:06:28.161Z,6.55
2018-11-02T06:07:33.171Z,5.62
2018-11-02T06:08:37.759Z,6.97
2018-11-02T06:09:42.422Z,6.25
2018-11-02T06:10:47.005Z,6.87
2018-11-02T06:11:51.713Z,7.85
2018-11-02T06:12:57.762Z,6.40
2018-11-02T06:14:02.970Z,6.85
2018-11-02T06:15:08.364Z,12.78
2018-11-02T06:16:12.926Z,11.30
2018-11-02T06:17:17.522Z,17.15
2018-11-02T06:18:22.150Z,13.28
2018-11-02T06:19:26.827Z,8.70
2018-11-02T06:20:31.683Z,9.25
2018-11-02T06:21:36.371Z,9.33
2018-11-02T06:22:41.948Z,10.90
2018-11-02T06:23:46.635Z,10.95
2018-11-02T06:24:54.261Z,8.80
2018-11-02T06:25:59.212Z,9.30
2018-11-02T06:27:04.705Z,13.90
2018-11-02T06:28:16.131Z,16.00
2018-11-02T06:29:23.330Z,11.18
2018-11-02T06:30:32.388Z,11.10
2018-11-02T06:31:37.467Z,12.30
2018-11-02T06:32:43.256Z,11.45
2018-11-02T06:33:47.967Z,14.07
2018-11-02T06:34:52.646Z,18.98
2018-11-02T06:35:59.773Z,14.90
2018-11-02T06:37:09.181Z,12.35
2018-11-02T06:38:16.603Z,14.98
2018-11-02T06:39:21.551Z,19.23
2018-11-02T06:40:26.495Z,12.60
2018-11-02T06:41:32.221Z,15.23
2018-11-02T06:42:38.053Z,14.68
2018-11-02T06:43:43.065Z,13.75
2018-11-02T06:44:48.611Z,17.07
2018-11-02T06:45:54.140Z,16.73
2018-11-02T06:46:59.074Z,14.40
2018-11-02T06:48:03.890Z,9.50
2018-11-02T06:49:08.920Z,13.03
2018-11-02T06:50:14.809Z,10.35
2018-11-02T06:51:19.458Z,10.43
2018-11-02T06:52:24.261Z,9.20
2018-11-02T06:53:29.726Z,9.38
2018-11-02T06:54:34.589Z,11.35
2018-11-02T06:55:39.563Z,11.10
2018-11-02T06:56:45.068Z,9.38
2018-11-02T06:57:51.410Z,9.95
2018-11-02T06:58:56.331Z,9.28
2018-11-02T07:00:02.281Z,10.90
2018-11-02T07:01:07.139Z,9.55
2018-11-02T07:02:11.797Z,9.73
2018-11-02T07:03:16.476Z,9.55
2018-11-02T07:04:21.816Z,9.23
2018-11-02T07:05:26.544Z,9.55
2018-11-02T07:06:31.334Z,10.30
2018-11-02T07:07:40.348Z,10.70
2018-11-02T07:08:45.831Z,9.75
2018-11-02T07:09:50.754Z,10.40
2018-11-02T07:10:57.634Z,10.10
2018-11-02T07:12:02.300Z,9.88
2018-11-02T07:13:06.839Z,9.70
2018-11-02T07:14:11.973Z,9.55
2018-11-02T07:15:17.659Z,11.48
2018-11-02T07:16:23.010Z,10.20
2018-11-02T07:17:29.605Z,11.15
2018-11-02T07:18:34.866Z,10.30
2018-11-02T07:19:39.470Z,10.98
2018-11-02T07:20:46.300Z,9.75
2018-11-02T07:21:50.881Z,10.20
2018-11-02T07:22:55.887Z,9.88
2018-11-02T07:24:00.504Z,10.50
2018-11-02T07:25:06.811Z,10.50
2018-11-02T07:26:11.609Z,12.70
2018-11-02T07:27:17.626Z,9.93
2018-11-02T07:28:22.865Z,9.75
2018-11-02T07:29:28.953Z,9.95
2018-11-02T07:30:42.980Z,10.55
2018-11-02T07:31:54.945Z,10.15
2018-11-02T07:32:59.692Z,9.95
2018-11-02T07:35:16.944Z,9.60
2018-11-02T07:36:29.394Z,44.75
2018-11-02T07:39:22.634Z,222.73
2018-11-02T07:40:30.427Z,133.40
2018-11-02T07:41:36.904Z,23.83
2018-11-02T07:42:46.203Z,29.57
2018-11-02T07:43:54.072Z,24.35
2018-11-02T07:45:01.535Z,16.00
2018-11-02T07:46:07.839Z,15.78
2018-11-02T07:47:13.435Z,14.30
2018-11-02T07:48:22.201Z,13.62
2018-11-02T07:49:29.528Z,13.68
2018-11-02T07:50:56.495Z,13.00
2018-11-02T07:52:01.775Z,13.53
2018-11-02T07:53:07.271Z,12.43
2018-11-02T07:54:15.231Z,13.53
2018-11-02T07:55:27.222Z,15.95
2018-11-02T07:56:49.599Z,14.10
2018-11-02T07:57:55.716Z,13.38
2018-11-02T07:59:01.890Z,12.85
2018-11-02T08:00:06.882Z,14.43
2018-11-02T08:01:12.539Z,14.68
2018-11-02T08:02:18.871Z,13.50
2018-11-02T08:03:26.808Z,13.80
2018-11-02T08:04:33.071Z,13.43
2018-11-02T08:05:39.203Z,12.35
2018-11-02T08:06:45.139Z,14.40
2018-11-02T08:07:51.115Z,12.98
2018-11-02T08:08:56.454Z,15.18
2018-11-02T08:10:04.209Z,15.45
2018-11-02T08:11:09.836Z,14.35
2018-11-02T08:13:18.610Z,14.90
2018-11-02T08:14:23.407Z,13.50
2018-11-02T08:15:28.891Z,13.35
2018-11-02T08:16:37.151Z,14.58
2018-11-02T08:17:42.543Z,15.13
2018-11-02T08:18:48.211Z,13.78
2018-11-02T08:19:53.728Z,14.87
2018-11-02T08:21:00.350Z,13.90
2018-11-02T08:22:06.607Z,13.78
2018-11-02T08:23:11.455Z,13.50
2018-11-02T08:24:19.099Z,14.18
2018-11-02T08:25:24.992Z,13.90
2018-11-02T08:26:31.347Z,13.98
2018-11-02T08:27:36.391Z,19.87
2018-11-02T08:28:42.301Z,13.32
2018-11-02T08:29:50.635Z,13.98
2018-11-02T08:30:57.260Z,15.43
2018-11-02T08:32:06.336Z,13.20
2018-11-02T08:33:14.609Z,13.90
2018-11-02T08:34:19.529Z,11.40
2018-11-02T08:35:27.051Z,13.72
2018-11-02T08:36:32.431Z,12.60
2018-11-02T08:37:38.380Z,13.30
2018-11-02T08:38:44.152Z,13.22
2018-11-02T08:39:49.066Z,11.85
2018-11-02T08:40:57.938Z,12.82
2018-11-02T08:42:05.666Z,11.93
2018-11-02T08:43:12.832Z,14.05
2018-11-02T08:44:18.685Z,13.03
2018-11-02T08:45:24.092Z,14.80
2018-11-02T08:46:30.083Z,11.95
2018-11-02T08:47:37.629Z,13.25
2018-11-02T08:48:43.584Z,12.05
2018-11-02T08:49:48.493Z,13.65
2018-11-02T08:50:53.358Z,12.33
2018-11-02T08:52:03.238Z,13.88
2018-11-02T08:53:08.801Z,12.85
2018-11-02T08:54:14.284Z,12.40
2018-11-02T08:55:20.473Z,10.20
2018-11-02T08:56:27.850Z,12.60
2018-11-02T08:57:32.596Z,13.45
2018-11-02T08:58:38.033Z,13.03
2018-11-02T08:59:46.032Z,12.82
2018-11-02T09:00:51.483Z,12.93
2018-11-02T09:01:57.272Z,14.20
2018-11-02T09:03:02.253Z,14.60
2018-11-02T09:04:12.352Z,12.45
2018-11-02T09:05:17.110Z,11.70
2018-11-02T09:06:24.708Z,12.30
2018-11-02T09:07:30.253Z,11.25
2018-11-02T09:08:38.353Z,13.10
2018-11-02T09:12:58.006Z,13.93
2018-11-02T09:14:02.676Z,11.28
2018-11-02T09:15:07.492Z,12.58
2018-11-02T09:16:12.429Z,12.53
2018-11-02T09:17:17.759Z,15.30
2018-11-02T09:18:23.120Z,12.10
2018-11-02T09:19:30.014Z,14.07
2018-11-02T09:20:34.993Z,12.63
2018-11-02T09:21:39.950Z,13.53
2018-11-02T09:22:44.728Z,12.85
2018-11-02T09:23:49.539Z,14.70
2018-11-02T09:24:55.980Z,14.28
2018-11-02T09:26:01.766Z,15.03
2018-11-02T09:27:20.335Z,11.90
2018-11-02T09:28:25.406Z,12.30
2018-11-02T09:29:35.249Z,13.70
2018-11-02T09:30:41.598Z,12.23
2018-11-02T09:31:46.325Z,19.67
2018-11-02T09:32:54.355Z,13.60
2018-11-02T09:34:03.344Z,11.93
2018-11-02T09:35:08.663Z,12.03
2018-11-02T09:36:14.932Z,12.25
2018-11-02T09:37:21.655Z,13.88
2018-11-02T09:38:26.867Z,13.18
2018-11-02T09:39:33.534Z,13.18
2018-11-02T09:40:38.303Z,11.80
2018-11-02T09:41:43.851Z,11.48
2018-11-02T09:42:49.000Z,10.50
2018-11-02T09:43:54.438Z,12.90
2018-11-02T09:45:00.419Z,12.30
2018-11-02T09:46:08.371Z,13.15
2018-11-02T09:47:13.101Z,9.70
2018-11-02T09:48:20.388Z,14.25
2018-11-02T09:49:25.378Z,11.22
2018-11-02T09:50:30.492Z,13.18
2018-11-02T09:51:36.194Z,14.30
2018-11-02T09:52:41.489Z,13.30
2018-11-02T09:53:47.946Z,14.30
2018-11-02T09:54:53.236Z,12.90
2018-11-02T09:55:58.266Z,10.93
2018-11-02T09:57:03.791Z,12.07
2018-11-02T09:58:09.389Z,12.07
2018-11-02T09:59:15.423Z,12.30
2018-11-02T10:00:22.302Z,14.85
2018-11-02T10:01:27.429Z,11.45
2018-11-02T10:02:32.246Z,12.33
2018-11-02T10:03:38.033Z,11.33
2018-11-02T10:04:44.348Z,10.75
2018-11-02T10:05:49.167Z,12.60
2018-11-02T10:06:56.000Z,12.73
2018-11-02T10:08:05.650Z,12.63
2018-11-02T10:09:12.427Z,13.55
2018-11-02T10:10:17.296Z,13.22
2018-11-02T10:11:22.378Z,11.83
2018-11-02T10:12:27.437Z,11.90
2018-11-02T10:13:35.541Z,13.18
2018-11-02T10:14:42.349Z,12.28
2018-11-02T10:15:50.021Z,13.80
2018-11-02T10:16:56.378Z,11.15
2018-11-02T10:18:01.213Z,11.80
2018-11-02T10:19:06.425Z,12.33
2018-11-02T10:20:20.496Z,12.00
2018-11-02T10:21:36.118Z,13.90
2018-11-02T10:22:41.054Z,10.78
2018-11-02T10:23:46.605Z,11.95
2018-11-02T10:24:51.283Z,11.12
2018-11-02T10:25:59.922Z,10.55
2018-11-02T10:27:05.993Z,12.63
2018-11-02T10:28:12.277Z,12.30
2018-11-02T10:29:18.199Z,11.88
2018-11-02T10:30:23.253Z,12.70
2018-11-02T10:31:28.288Z,13.35
2018-11-02T10:32:33.848Z,12.58
2018-11-02T10:33:39.428Z,12.80
2018-11-02T10:34:47.683Z,15.30
2018-11-02T10:35:53.775Z,13.10
2018-11-02T10:36:59.642Z,14.53
2018-11-02T10:41:13.573Z,12.00
2018-11-02T10:42:19.393Z,11.50
2018-11-02T10:43:27.061Z,12.53
2018-11-02T10:44:38.442Z,13.88
2018-11-02T10:45:47.046Z,13.72
2018-11-02T10:48:07.408Z,11.60
2018-11-02T10:49:28.795Z,14.25
2018-11-02T10:50:34.593Z,14.95
2018-11-02T10:51:43.085Z,12.13
2018-11-02T10:52:48.391Z,14.28
2018-11-02T10:53:53.529Z,12.95
2018-11-02T10:54:58.314Z,16.75
2018-11-02T10:56:03.024Z,13.58
2018-11-02T10:57:07.996Z,12.23
2018-11-02T10:58:16.988Z,14.25
2018-11-02T10:59:21.998Z,11.93
2018-11-02T11:00:32.073Z,13.18
2018-11-02T11:01:42.233Z,14.00
2018-11-02T11:02:46.972Z,14.00
2018-11-02T11:03:51.843Z,13.95
2018-11-02T11:04:58.557Z,14.60
2018-11-02T11:06:03.350Z,12.78
2018-11-02T11:07:09.249Z,13.98
2018-11-02T11:08:14.524Z,13.40
2018-11-02T11:09:19.816Z,14.95
2018-11-02T11:10:26.077Z,13.95
2018-11-02T11:11:33.195Z,12.88
2018-11-02T11:12:42.278Z,14.87
2018-11-02T11:13:48.295Z,18.37
2018-11-02T11:14:53.884Z,16.48
2018-11-02T11:15:58.973Z,16.95
2018-11-02T11:17:04.376Z,16.52
2018-11-02T11:18:10.182Z,16.15
2018-11-02T11:19:23.097Z,16.45
2018-11-02T11:20:29.628Z,16.90
2018-11-02T11:21:34.894Z,16.23
2018-11-02T11:22:39.827Z,16.80
2018-11-02T11:23:45.076Z,16.90
2018-11-02T11:24:50.943Z,16.10
2018-11-02T11:25:56.047Z,15.32
2018-11-02T11:27:03.501Z,14.45
2018-11-02T11:28:08.546Z,16.02
2018-11-02T11:29:15.316Z,15.03
2018-11-02T11:30:21.420Z,17.70
2018-11-02T11:31:26.315Z,14.50
2018-11-02T11:32:31.873Z,14.50
2018-11-02T11:33:36.640Z,12.30
2018-11-02T11:34:41.430Z,13.08
2018-11-02T11:35:46.961Z,14.58
2018-11-02T11:36:51.989Z,15.58
2018-11-02T11:37:58.047Z,17.23
2018-11-02T11:39:04.198Z,14.68
2018-11-02T11:40:15.772Z,14.70
2018-11-02T11:41:23.023Z,15.00
2018-11-02T11:42:27.858Z,12.40
2018-11-02T11:43:33.568Z,33.18
2018-11-02T11:44:39.446Z,15.70
2018-11-02T11:45:46.531Z,14.07
2018-11-02T11:46:52.061Z,14.38
2018-11-02T11:47:57.072Z,14.50
2018-11-02T11:49:03.666Z,14.55
2018-11-02T11:50:16.891Z,14.65
2018-11-02T11:51:23.722Z,14.15
2018-11-02T11:52:32.497Z,14.90
2018-11-02T11:53:54.451Z,14.38
2018-11-02T11:55:05.637Z,15.03
2018-11-02T11:56:12.946Z,14.98
2018-11-02T11:57:21.564Z,14.35
2018-11-02T11:58:34.782Z,13.08
2018-11-02T12:00:43.165Z,14.87
2018-11-02T12:01:48.166Z,15.05
2018-11-02T12:03:58.073Z,14.70
2018-11-02T12:05:33.349Z,12.98
2018-11-02T12:06:39.353Z,15.10
2018-11-02T12:07:44.274Z,14.28
2018-11-02T12:08:51.498Z,13.58
2018-11-02T12:09:58.981Z,14.45
2018-11-02T12:11:06.809Z,14.33
2018-11-02T12:12:16.985Z,15.23
2018-11-02T12:13:26.972Z,14.70
2018-11-02T12:14:36.019Z,18.30
2018-11-02T12:15:43.540Z,21.17
2018-11-02T12:16:48.749Z,19.00
2018-11-02T12:17:55.381Z,16.73
2018-11-02T12:19:01.039Z,14.70
2018-11-02T12:20:07.937Z,15.25
2018-11-02T12:21:19.613Z,15.80
2018-11-02T12:22:25.910Z,13.00
2018-11-02T12:23:32.635Z,13.50
2018-11-02T12:24:39.310Z,14.33
2018-11-02T12:25:46.442Z,14.18
2018-11-02T12:26:51.438Z,15.28
2018-11-02T12:27:57.413Z,14.13
2018-11-02T12:29:03.671Z,13.30
2018-11-02T12:30:10.055Z,13.48
2018-11-02T12:31:14.972Z,13.10
2018-11-02T12:32:20.104Z,20.97
2018-11-02T12:33:27.088Z,13.62
2018-11-02T12:34:38.694Z,12.80
2018-11-02T12:35:59.461Z,13.22
2018-11-02T12:37:04.855Z,13.65
2018-11-02T12:38:25.077Z,12.10
2018-11-02T12:39:44.021Z,13.35
2018-11-02T12:40:50.928Z,12.05
2018-11-02T12:41:58.263Z,12.65
2018-11-02T12:43:04.657Z,11.48
2018-11-02T12:44:12.011Z,10.85
2018-11-02T12:45:18.319Z,12.65
2018-11-02T12:46:23.410Z,12.28
2018-11-02T12:47:28.960Z,10.40
2018-11-02T12:49:04.704Z,11.70
2018-11-02T12:50:14.480Z,12.68
2018-11-02T12:51:25.064Z,13.58
2018-11-02T12:52:33.034Z,12.20
2018-11-02T12:53:40.191Z,14.07
2018-11-02T12:54:45.000Z,11.65
2018-11-02T12:55:51.527Z,12.20
2018-11-02T12:56:56.513Z,12.98
2018-11-02T12:58:02.464Z,12.50
2018-11-02T12:59:09.802Z,11.05
2018-11-02T13:00:17.016Z,12.88
2018-11-02T13:01:26.367Z,14.23
2018-11-02T13:02:33.467Z,10.68
2018-11-02T13:03:39.051Z,12.68
2018-11-02T13:04:45.681Z,15.05
2018-11-02T13:05:51.930Z,14.33
2018-11-02T13:06:58.178Z,13.62
2018-11-02T13:08:06.119Z,17.07
2018-11-02T13:09:13.073Z,60.95
2018-11-02T13:10:19.548Z,16.48
2018-11-02T13:11:27.542Z,15.60
2018-11-02T13:12:33.408Z,12.75
2018-11-02T13:13:39.450Z,12.47
2018-11-02T13:14:44.976Z,11.20
2018-11-02T13:15:49.975Z,13.65
2018-11-02T13:16:57.126Z,10.72
2018-11-02T13:18:03.479Z,10.48
2018-11-02T13:19:10.915Z,10.28
2018-11-02T13:20:17.429Z,15.70
2018-11-02T13:21:23.230Z,12.25
2018-11-02T13:22:28.913Z,11.50
2018-11-02T13:23:39.652Z,12.00
2018-11-02T13:24:45.901Z,11.25
2018-11-02T13:26:00.592Z,10.50
2018-11-02T13:27:06.720Z,10.43
2018-11-02T13:28:12.537Z,9.28
2018-11-02T13:29:17.941Z,10.05
2018-11-02T13:30:24.721Z,10.50
2018-11-02T13:31:30.877Z,10.18
2018-11-02T13:32:35.763Z,9.75
2018-11-02T13:34:08.864Z,9.13
2018-11-02T13:35:18.433Z,5.22
2018-11-02T13:36:24.160Z,9.80
2018-11-02T13:37:29.090Z,14.40
2018-11-02T13:38:40.021Z,9.20
2018-11-02T13:39:46.007Z,10.20
2018-11-02T13:40:53.242Z,10.55
2018-11-02T13:41:58.126Z,10.15
2018-11-02T13:43:05.325Z,10.05
2018-11-02T13:44:10.975Z,10.60
2018-11-02T13:45:18.336Z,10.53
2018-11-02T13:46:23.944Z,9.78
2018-11-02T13:47:39.801Z,8.78
2018-11-02T13:48:46.017Z,8.53
2018-11-02T13:49:51.833Z,9.70
2018-11-02T13:50:57.031Z,9.00
2018-11-02T13:52:02.602Z,12.07
2018-11-02T13:53:08.977Z,10.28
2018-11-02T13:54:15.796Z,11.38
2018-11-02T13:55:22.702Z,10.25
2018-11-02T13:56:28.678Z,8.45
2018-11-02T13:57:33.991Z,9.15
2018-11-02T13:58:39.118Z,12.95
2018-11-02T13:59:44.628Z,9.20
2018-11-02T14:00:50.999Z,12.85
2018-11-02T14:01:59.296Z,17.27
2018-11-02T14:03:05.410Z,16.50
2018-11-02T14:04:11.332Z,10.13
2018-11-02T14:05:18.634Z,10.30
2018-11-02T14:06:24.261Z,10.23
2018-11-02T14:07:29.819Z,9.48
2018-11-02T14:08:36.442Z,11.95
2018-11-02T14:09:41.667Z,9.60
2018-11-02T14:10:46.637Z,11.90
2018-11-02T14:11:52.582Z,14.13
2018-11-02T14:12:57.585Z,14.35
2018-11-02T14:14:02.760Z,11.05
2018-11-02T14:15:14.587Z,11.00
2018-11-02T14:16:21.125Z,11.78
2018-11-02T14:17:27.521Z,15.40
2018-11-02T14:18:35.145Z,14.87
2018-11-02T14:19:42.303Z,12.35
2018-11-02T14:20:49.276Z,11.55
2018-11-02T14:21:57.247Z,12.25
2018-11-02T14:23:16.941Z,10.85
2018-11-02T14:24:45.550Z,9.65
2018-11-02T14:25:55.239Z,6.75
2018-11-02T14:27:09.903Z,15.00
2018-11-02T14:28:16.224Z,11.73
2018-11-02T14:29:25.869Z,14.58
2018-11-02T14:31:30.549Z,8.98
2018-11-02T14:32:54.846Z,8.73
2018-11-02T14:34:01.677Z,8.80
2018-11-02T14:35:10.226Z,8.85
2018-11-02T14:36:15.323Z,8.98
2018-11-02T14:38:01.380Z,8.30
2018-11-02T14:39:14.629Z,11.83
2018-11-02T14:40:19.689Z,9.78
2018-11-02T14:41:25.309Z,9.18
2018-11-02T14:42:32.096Z,9.50